.
WxDataArchive / Data Records for 2010-07-14
2010-07-13 July 2010 2010-07-15

Data Records for Wednesday, 14 July 2010

Time	Temp	Chill	HIndex	Humid	Dewpt	 Wind 	HiWind	WindDir	Rain 	Barom 
-----	----	-----	------	-----	-----	------	------	-------	-----	----- 
00:00	71.6	71.6	71.6	84	66.5	0	3	112	0.00	29.947 
00:05	71.5	71.5	71.5	84	66.4	0	0	---	0.00	29.947 
00:10	71.3	71.3	71.3	84	66.2	0	0	---	0.00	29.947 
00:15	71.1	71.1	71.1	84	66.0	0	1	112	0.00	29.950 
00:20	70.9	70.9	70.9	84	65.8	0	1	112	0.00	29.950 
00:25	70.9	70.9	70.9	85	66.2	0	0	---	0.00	29.950 
00:30	70.8	70.8	70.8	85	66.1	0	1	112	0.00	29.955 
00:35	70.8	70.8	70.8	85	66.1	0	0	---	0.00	29.955 
00:40	70.6	70.6	70.6	85	65.9	0	0	---	0.00	29.955 
00:45	70.4	70.4	70.4	86	66.0	0	0	---	0.00	29.954 
00:50	70.1	70.1	70.1	86	65.7	0	0	---	0.00	29.954 
00:55	69.9	69.9	69.9	87	65.8	0	0	---	0.00	29.954 
01:00	69.8	69.8	69.8	87	65.7	0	0	---	0.00	29.953 
01:05	69.6	69.6	69.6	88	65.9	0	0	---	0.00	29.953 
01:10	69.4	69.4	69.4	88	65.7	0	0	---	0.00	29.953 
01:15	69.4	69.4	69.4	89	66.0	0	0	---	0.00	29.950 
01:20	69.3	69.3	69.3	89	65.9	0	0	---	0.00	29.950 
01:25	69.3	69.3	69.3	89	65.9	0	0	---	0.00	29.950 
01:30	69.1	69.1	69.1	89	65.7	0	0	---	0.00	29.955 
01:35	68.9	68.9	68.9	90	65.8	0	0	---	0.00	29.955 
01:40	68.9	68.9	68.9	90	65.8	0	0	---	0.00	29.955 
01:45	68.8	68.8	68.8	90	65.7	0	0	---	0.00	29.960 
01:50	68.6	68.6	68.6	90	65.5	0	0	---	0.00	29.960 
01:55	68.6	68.6	68.6	91	65.9	0	0	---	0.00	29.960 
02:00	68.4	68.4	68.4	91	65.7	0	0	---	0.00	29.961 
02:05	68.4	68.4	68.4	91	65.7	0	0	---	0.00	29.961 
02:10	68.4	68.4	68.4	91	65.7	0	0	---	0.00	29.961 
02:15	68.3	68.3	68.3	91	65.6	0	0	---	0.00	29.961 
02:20	68.3	68.3	68.3	92	65.9	0	0	---	0.00	29.961 
02:25	68.1	68.1	68.1	92	65.7	0	0	---	0.00	29.961 
02:30	68.1	68.1	68.1	92	65.7	0	0	---	0.00	29.962 
02:35	67.9	67.9	67.9	92	65.5	0	0	---	0.00	29.962 
02:40	67.9	67.9	67.9	92	65.5	0	0	---	0.00	29.962 
02:45	67.9	67.9	67.9	92	65.5	0	0	---	0.00	29.964 
02:50	67.8	67.8	67.8	92	65.4	0	0	---	0.00	29.964 
02:55	67.8	67.8	67.8	92	65.4	0	0	---	0.00	29.964 
03:00	67.6	67.6	67.6	92	65.2	0	0	---	0.00	29.969 
03:05	67.6	67.6	67.6	92	65.2	0	0	---	0.00	29.969 
03:10	67.4	67.4	67.4	92	65.0	0	0	---	0.00	29.969 
03:15	67.3	67.3	67.3	92	64.9	0	0	---	0.00	29.970 
03:20	67.3	67.3	67.3	92	64.9	0	0	---	0.00	29.970 
03:25	67.1	67.1	67.1	92	64.7	0	0	---	0.00	29.970 
03:30	67.1	67.1	67.1	93	65.0	0	0	---	0.00	29.973 
03:35	66.9	66.9	66.9	93	64.8	0	0	---	0.00	29.973 
03:40	66.9	66.9	66.9	93	64.8	0	0	---	0.00	29.973 
03:45	66.8	66.8	66.8	93	64.7	0	0	---	0.00	29.978 
03:50	66.6	66.6	66.6	93	64.5	0	0	---	0.00	29.978 
03:55	66.6	66.6	66.6	93	64.5	0	0	---	0.00	29.978 
04:00	66.6	66.6	66.6	93	64.5	0	0	---	0.00	29.985 
04:05	66.4	66.4	66.4	93	64.3	0	0	---	0.00	29.985 
04:10	66.4	66.4	66.4	93	64.3	0	0	---	0.00	29.985 
04:15	66.4	66.4	66.4	94	64.6	0	0	---	0.00	29.989 
04:20	66.3	66.3	66.3	94	64.5	0	0	---	0.00	29.989 
04:25	66.3	66.3	66.3	94	64.5	0	0	---	0.00	29.989 
04:30	66.3	66.3	66.3	94	64.5	0	0	---	0.00	29.990 
04:35	66.1	66.1	66.1	94	64.3	0	0	---	0.00	29.990 
04:40	66.1	66.1	66.1	94	64.3	0	0	---	0.00	29.990 
04:45	66.1	66.1	66.1	94	64.3	0	0	---	0.00	29.995 
04:50	66.0	66.0	66.0	94	64.2	0	0	---	0.00	29.995 
04:55	66.0	66.0	66.0	94	64.2	0	0	---	0.00	29.995 
05:00	65.8	65.8	65.8	94	64.0	0	0	---	0.00	29.995 
05:05	65.8	65.8	65.8	94	64.0	0	0	---	0.00	29.995 
05:10	65.8	65.8	65.8	94	64.0	0	0	---	0.00	29.995 
05:15	65.6	65.6	65.6	94	63.8	0	0	---	0.00	29.997 
05:20	65.6	65.6	65.6	94	63.8	0	0	---	0.00	29.997 
05:25	65.5	65.5	65.5	94	63.7	0	0	---	0.00	29.997 
05:30	65.5	65.5	65.5	94	63.7	0	0	---	0.00	30.005 
05:35	65.3	65.3	65.3	94	63.5	0	0	---	0.00	30.005 
05:40	65.3	65.3	65.3	95	63.8	0	0	---	0.00	30.005 
05:45	65.3	65.3	65.3	95	63.8	0	0	---	0.00	30.007 
05:50	65.2	65.2	65.2	95	63.7	0	0	---	0.00	30.007 
05:55	65.2	65.2	65.2	95	63.7	0	0	---	0.00	30.007 
06:00	65.2	65.2	65.2	95	63.7	0	0	---	0.00	30.009 
06:05	65.2	65.2	65.2	95	63.7	0	0	---	0.00	30.009 
06:10	65.2	65.2	65.2	95	63.7	0	0	---	0.00	30.009 
06:15	65.2	65.2	65.2	95	63.7	0	0	---	0.00	30.013 
06:20	65.2	65.2	65.2	95	63.7	0	0	---	0.00	30.013 
06:25	65.2	65.2	65.2	95	63.7	0	0	---	0.00	30.013 
06:30	65.0	65.0	65.0	95	63.5	0	0	---	0.00	30.017 
06:35	65.0	65.0	65.0	95	63.5	0	0	---	0.00	30.017 
06:40	65.0	65.0	65.0	95	63.5	0	0	---	0.00	30.017 
06:45	65.0	65.0	65.0	95	63.5	0	0	---	0.00	30.019 
06:50	65.0	65.0	65.0	95	63.5	0	0	---	0.00	30.019 
06:55	65.2	65.2	65.2	96	64.0	0	0	---	0.00	30.019 
07:00	65.3	65.3	65.3	96	64.1	0	0	---	0.00	30.024 
07:05	65.5	65.5	65.5	96	64.3	0	0	---	0.00	30.024 
07:10	65.6	65.6	65.6	96	64.4	0	0	---	0.00	30.024 
07:15	66.0	66.0	66.0	96	64.8	0	0	---	0.00	30.026 
07:20	66.1	66.1	66.1	96	64.9	0	0	---	0.00	30.026 
07:25	66.4	66.4	66.4	96	65.2	0	0	---	0.00	30.026 
07:30	66.8	66.8	66.8	96	65.6	0	0	---	0.00	30.029 
07:35	67.3	67.3	67.3	96	66.1	0	0	---	0.00	30.029 
07:40	67.6	67.6	67.6	96	66.4	0	0	---	0.00	30.029 
07:45	68.4	68.4	68.4	96	67.2	0	0	---	0.00	30.030 
07:50	68.9	68.9	68.9	96	67.7	0	0	---	0.00	30.030 
07:55	69.6	69.6	69.6	96	68.4	0	1	112	0.00	30.030 
08:00	70.3	70.3	70.3	94	68.5	0	1	112	0.00	30.035 
08:05	70.6	70.6	70.6	92	68.2	0	2	112	0.00	30.035 
08:10	70.9	70.9	70.9	91	68.1	0	1	112	0.00	30.035 
08:15	71.6	71.6	71.6	89	68.2	0	1	112	0.00	30.037 
08:20	72.3	72.3	72.3	87	68.2	0	1	112	0.00	30.037 
08:25	72.8	72.8	72.8	85	68.0	0	1	112	0.00	30.037 
08:30	73.5	73.5	73.5	83	68.0	0	0	---	0.00	30.039 
08:35	74.4	74.4	74.4	82	68.5	0	1	112	0.00	30.039 
08:40	74.9	74.9	74.9	80	68.3	0	2	112	0.00	30.039 
08:45	75.4	75.4	76.1	80	68.8	0	1	112	0.00	30.039 
08:50	76.0	76.0	77.2	78	68.6	0	2	112	0.00	30.039 
08:55	76.1	76.1	77.3	78	68.7	0	2	112	0.00	30.039 
09:00	76.7	76.7	78.2	77	68.9	0	1	112	0.00	30.037 
09:05	77.0	77.0	78.7	76	68.8	1	3	112	0.00	30.037 
09:10	77.2	77.2	79.0	77	69.4	1	3	112	0.00	30.037 
09:15	77.2	77.2	79.0	77	69.4	0	3	338	0.00	30.048 
09:20	77.4	77.4	79.3	77	69.6	1	2	135	0.00	30.048 
09:25	77.4	77.4	79.3	77	69.6	1	3	135	0.00	30.048 
09:30	77.4	77.4	79.3	77	69.6	1	3	135	0.00	30.049 
09:35	77.7	77.7	79.7	77	69.9	1	2	112	0.00	30.049 
09:40	78.1	78.1	80.4	76	69.9	1	3	112	0.00	30.049 
09:45	78.5	78.5	81.0	76	70.3	1	3	112	0.00	30.052 
09:50	78.8	78.8	81.5	75	70.2	0	1	112	0.00	30.052 
09:55	79.0	79.0	81.8	75	70.4	1	4	112	0.00	30.052 
10:00	79.4	79.4	82.4	74	70.4	1	3	112	0.00	30.052 
10:05	79.6	79.6	82.8	75	71.0	1	4	112	0.00	30.052 
10:10	79.4	79.4	82.4	74	70.4	1	3	90	0.00	30.052 
10:15	79.2	79.2	82.2	76	71.0	1	4	90	0.00	30.053 
10:20	79.4	79.4	82.5	75	70.8	1	4	90	0.00	30.053 
10:25	79.4	79.4	82.4	74	70.4	1	4	90	0.00	30.053 
10:30	79.6	79.6	82.8	75	71.0	1	3	90	0.00	30.053 
10:35	80.1	80.1	83.4	72	70.2	1	5	90	0.00	30.053 
10:40	80.1	80.1	83.5	73	70.6	1	5	90	0.00	30.053 
10:45	80.5	80.5	84.2	73	71.0	1	3	90	0.00	30.053 
10:50	80.9	80.9	84.6	71	70.6	1	3	90	0.00	30.053 
10:55	81.4	81.4	85.3	70	70.7	1	3	90	0.00	30.053 
11:00	82.0	82.0	85.6	66	69.5	1	2	90	0.00	30.052 
11:05	82.0	82.0	85.4	65	69.0	1	3	90	0.00	30.052 
11:10	82.2	82.2	86.1	67	70.1	1	3	90	0.00	30.052 
11:15	82.8	82.8	86.7	65	69.8	1	3	90	0.00	30.052 
11:20	82.8	82.8	86.7	65	69.8	0	1	112	0.00	30.052 
11:25	82.4	82.4	86.1	65	69.4	0	1	112	0.00	30.052 
11:30	82.6	82.6	85.7	62	68.2	0	3	112	0.00	30.051 
11:35	83.0	83.0	86.1	61	68.1	1	2	112	0.00	30.051 
11:40	82.8	82.8	86.1	62	68.4	0	1	112	0.00	30.051 
11:45	82.4	82.4	85.6	63	68.5	0	1	135	0.00	30.047 
11:50	82.8	82.8	86.1	62	68.4	1	5	112	0.00	30.047 
11:55	83.4	83.4	86.8	61	68.5	1	3	90	0.00	30.047 
12:00	83.6	83.6	86.9	60	68.2	0	2	90	0.00	30.043 
12:05	83.6	83.6	86.6	59	67.7	1	3	112	0.00	30.043 
12:10	84.0	84.0	87.8	61	69.1	0	2	135	0.00	30.043 
12:15	84.1	84.1	87.2	58	67.7	1	6	90	0.00	30.046 
12:20	84.3	84.3	87.5	58	67.9	1	4	90	0.00	30.046 
12:25	84.5	84.5	88.1	59	68.6	1	4	90	0.00	30.046 
12:30	84.5	84.5	87.8	58	68.1	1	3	90	0.00	30.048 
12:35	84.5	84.5	88.1	59	68.6	2	4	90	0.00	30.048 
12:40	84.7	84.7	87.9	57	67.7	1	3	90	0.00	30.048 
12:45	85.3	85.3	88.8	57	68.3	1	3	90	0.00	30.048 
12:50	85.9	85.9	88.3	52	66.2	1	4	90	0.00	30.048 
12:55	86.1	86.1	89.2	54	67.5	1	4	90	0.00	30.048 
13:00	86.1	86.1	89.2	54	67.5	2	5	90	0.00	30.047 
13:05	85.9	85.9	88.9	54	67.3	1	4	90	0.00	30.047 
13:10	85.1	85.1	88.2	56	67.6	1	4	90	0.00	30.047 
13:15	84.9	84.9	87.6	55	66.9	1	2	90	0.00	30.046 
13:20	85.5	85.5	88.3	54	66.9	1	5	90	0.00	30.046 
13:25	85.7	85.7	88.6	54	67.1	2	6	90	0.00	30.046 
13:30	85.9	85.9	89.2	55	67.8	2	5	90	0.00	30.038 
13:35	86.1	86.1	89.2	54	67.5	2	4	90	0.00	30.038 
13:40	86.7	86.7	90.3	54	68.0	0	2	90	0.00	30.038 
13:45	87.4	87.4	90.7	52	67.6	1	4	90	0.00	30.039 
13:50	87.6	87.6	90.7	51	67.2	1	6	90	0.00	30.039 
13:55	87.6	87.6	90.4	50	66.6	2	4	90	0.00	30.039 
14:00	87.6	87.6	90.0	49	66.0	1	5	90	0.00	30.033 
14:05	87.2	87.2	90.1	51	66.8	2	6	68	0.00	30.033 
14:10	87.0	87.0	89.7	51	66.6	2	6	90	0.00	30.033 
14:15	87.2	87.2	90.1	51	66.8	1	4	90	0.00	30.035 
14:20	87.4	87.4	90.1	50	66.4	1	3	270	0.00	30.035 
14:25	87.4	87.4	90.1	50	66.4	1	4	112	0.00	30.035 
14:30	87.8	87.8	90.7	50	66.8	0	2	112	0.00	30.030 
14:35	88.4	88.4	92.1	51	67.9	0	2	112	0.00	30.030 
14:40	88.8	88.8	91.3	47	65.9	1	3	22	0.00	30.030 
14:45	88.6	88.6	91.0	47	65.7	1	3	45	0.00	30.030 
14:50	88.0	88.0	91.0	50	67.0	0	1	45	0.00	30.030 
14:55	87.2	87.2	90.1	51	66.8	1	3	292	0.00	30.030 
15:00	87.4	87.4	90.1	50	66.4	2	4	68	0.00	30.031 
15:05	88.0	88.0	90.7	49	66.4	0	2	68	0.00	30.031 
15:10	88.4	88.4	91.3	49	66.8	2	5	112	0.00	30.031 
15:15	88.6	88.6	91.7	49	67.0	1	4	112	0.00	30.024 
15:20	88.4	88.4	91.3	49	66.8	1	3	112	0.00	30.024 
15:25	87.8	87.8	90.7	50	66.8	1	3	112	0.00	30.024 
15:30	87.4	87.4	90.1	50	66.4	1	2	90	0.00	30.023 
15:35	87.0	87.0	89.7	51	66.6	0	1	90	0.00	30.023 
15:40	87.0	87.0	89.4	50	66.1	0	5	90	0.00	30.023 
15:45	87.0	87.0	89.1	49	65.5	2	6	135	0.00	30.026 
15:50	87.4	87.4	90.1	50	66.4	0	1	135	0.00	30.026 
15:55	87.6	87.6	90.4	50	66.6	1	3	135	0.00	30.026 
16:00	87.8	87.8	91.1	51	67.4	1	2	135	0.00	30.024 
16:05	87.8	87.8	90.7	50	66.8	2	6	90	0.00	30.024 
16:10	87.6	87.6	91.1	52	67.8	1	3	135	0.00	30.024 
16:15	87.4	87.4	89.7	49	65.9	0	1	135	0.00	30.023 
16:20	87.2	87.2	89.4	49	65.7	0	2	135	0.00	30.023 
16:25	87.2	87.2	89.7	50	66.3	0	2	135	0.00	30.023 
16:30	87.2	87.2	89.4	49	65.7	0	2	135	0.00	30.026 
16:35	87.4	87.4	90.1	50	66.4	0	1	135	0.00	30.026 
16:40	87.4	87.4	89.7	49	65.9	0	3	135	0.00	30.026 
16:45	87.2	87.2	89.7	50	66.3	0	2	135	0.00	30.024 
16:50	87.4	87.4	90.1	50	66.4	0	2	135	0.00	30.024 
16:55	88.0	88.0	90.0	47	65.2	0	2	135	0.00	30.024 
17:00	88.2	88.2	90.3	47	65.4	1	4	90	0.00	30.024 
17:05	88.4	88.4	91.0	48	66.2	1	3	112	0.00	30.024 
17:10	88.4	88.4	90.6	47	65.6	0	2	135	0.00	30.024 
17:15	88.2	88.2	91.0	49	66.6	0	4	135	0.00	30.031 
17:20	87.8	87.8	90.0	48	65.6	1	3	248	0.00	30.031 
17:25	87.4	87.4	89.7	49	65.9	0	1	248	0.00	30.031 
17:30	87.2	87.2	89.1	48	65.1	0	2	248	0.00	30.037 
17:35	87.2	87.2	89.4	49	65.7	0	2	248	0.00	30.037 
17:40	87.4	87.4	89.4	48	65.3	0	2	202	0.00	30.037 
17:45	87.6	87.6	90.0	49	66.0	1	4	90	0.00	30.035 
17:50	87.6	87.6	89.7	48	65.4	0	1	90	0.00	30.035 
17:55	87.6	87.6	90.0	49	66.0	0	1	90	0.00	30.035 
18:00	87.4	87.4	89.1	47	64.7	0	1	90	0.00	30.034 
18:05	87.2	87.2	89.7	50	66.3	0	1	90	0.00	30.034 
18:10	87.2	87.2	89.4	49	65.7	0	2	90	0.00	30.034 
18:15	87.0	87.0	89.1	49	65.5	0	1	90	0.00	30.024 
18:20	86.7	86.7	88.9	50	65.8	0	2	68	0.00	30.024 
18:25	86.5	86.5	88.3	49	65.0	0	1	68	0.00	30.024 
18:30	86.5	86.5	88.1	48	64.4	0	2	68	0.00	30.010 
18:35	86.5	86.5	88.1	48	64.4	0	1	68	0.00	30.010 
18:40	86.5	86.5	88.3	49	65.0	0	1	68	0.00	30.010 
18:45	86.5	86.5	88.3	49	65.0	0	1	68	0.00	30.005 
18:50	86.5	86.5	88.3	49	65.0	0	1	68	0.00	30.005 
18:55	86.5	86.5	88.1	48	64.4	0	2	270	0.00	30.005 
19:00	86.5	86.5	88.6	50	65.6	0	2	292	0.00	29.994 
19:05	86.3	86.3	88.3	50	65.4	0	1	292	0.00	29.994 
19:10	86.3	86.3	88.3	50	65.4	0	1	292	0.00	29.994 
19:15	86.1	86.1	87.8	49	64.7	1	4	68	0.00	29.987 
19:20	85.9	85.9	87.7	50	65.1	0	2	90	0.00	29.987 
19:25	85.7	85.7	87.7	51	65.5	0	2	90	0.00	29.987 
19:30	85.5	85.5	87.7	52	65.8	0	1	90	0.00	29.983 
19:35	85.3	85.3	87.4	52	65.6	0	1	90	0.00	29.983 
19:40	85.1	85.1	87.1	52	65.5	1	3	90	0.00	29.983 
19:45	85.1	85.1	87.4	53	66.0	0	2	90	0.00	29.977 
19:50	84.9	84.9	87.1	53	65.8	0	3	90	0.00	29.977 
19:55	84.7	84.7	87.0	54	66.2	0	2	90	0.00	29.977 
20:00	84.7	84.7	87.0	54	66.2	0	1	90	0.00	29.979 
20:05	84.5	84.5	86.7	54	66.0	0	2	90	0.00	29.979 
20:10	84.5	84.5	87.0	55	66.5	0	1	90	0.00	29.979 
20:15	84.3	84.3	86.7	55	66.3	0	3	90	0.00	29.973 
20:20	84.1	84.1	86.7	56	66.7	0	0	---	0.00	29.973 
20:25	84.0	84.0	86.7	57	67.1	0	0	---	0.00	29.973 
20:30	83.8	83.8	86.4	57	66.9	0	0	---	0.00	29.985 
20:35	83.4	83.4	86.1	58	67.0	0	0	---	0.00	29.985 
20:40	83.2	83.2	85.8	58	66.9	0	0	---	0.00	29.985 
20:45	83.0	83.0	85.7	59	67.2	0	0	---	0.00	29.992 
20:50	82.6	82.6	85.3	60	67.3	0	0	---	0.00	29.992 
20:55	82.2	82.2	84.7	60	66.9	0	0	---	0.00	29.992 
21:00	81.8	81.8	84.3	61	67.0	0	0	---	0.00	29.998 
21:05	81.4	81.4	83.9	62	67.1	0	0	---	0.00	29.998 
21:10	81.1	81.1	83.6	63	67.3	0	0	---	0.00	29.998 
21:15	80.7	80.7	83.2	64	67.4	0	0	---	0.00	30.000 
21:20	80.3	80.3	82.8	65	67.4	0	0	---	0.00	30.000 
21:25	80.1	80.1	82.5	65	67.2	0	0	---	0.00	30.000 
21:30	79.6	79.6	81.9	66	67.2	0	0	---	0.00	30.001 
21:35	79.4	79.4	81.7	67	67.5	0	0	---	0.00	30.001 
21:40	79.0	79.0	81.3	68	67.5	0	0	---	0.00	30.001 
21:45	78.6	78.6	80.7	68	67.1	0	0	---	0.00	30.002 
21:50	78.5	78.5	80.7	69	67.5	0	0	---	0.00	30.002 
21:55	78.3	78.3	80.4	70	67.7	0	0	---	0.00	30.002 
22:00	77.9	77.9	79.9	71	67.7	0	0	---	0.00	30.004 
22:05	77.7	77.7	79.7	71	67.5	0	0	---	0.00	30.004 
22:10	77.4	77.4	79.3	72	67.6	0	0	---	0.00	30.004 
22:15	77.2	77.2	79.0	73	67.9	0	0	---	0.00	30.009 
22:20	76.8	76.8	78.5	73	67.5	0	0	---	0.00	30.009 
22:25	76.7	76.7	78.3	74	67.8	0	0	---	0.00	30.009 
22:30	76.5	76.5	78.0	76	68.4	0	0	---	0.00	30.006 
22:35	76.3	76.3	77.6	77	68.5	0	0	---	0.00	30.006 
22:40	76.1	76.1	77.4	77	68.3	0	0	---	0.00	30.006 
22:45	76.0	76.0	77.2	78	68.6	0	0	---	0.00	30.002 
22:50	75.8	75.8	76.9	78	68.4	0	0	---	0.00	30.002 
22:55	75.6	75.6	76.5	79	68.6	0	0	---	0.00	30.002 
23:00	75.4	75.4	76.2	79	68.4	0	0	---	0.00	30.000 
23:05	75.4	75.4	76.2	79	68.4	0	0	---	0.00	30.000 
23:10	75.3	75.3	76.1	79	68.3	0	0	---	0.00	30.000 
23:15	75.3	75.3	76.0	80	68.7	0	0	---	0.00	29.986 
23:20	75.3	75.3	76.0	80	68.7	0	0	---	0.00	29.986 
23:25	75.4	75.4	76.2	79	68.4	0	0	---	0.00	29.986 
23:30	75.6	75.6	76.5	79	68.6	0	1	90	0.00	29.984 
23:35	75.8	75.8	76.8	79	68.8	0	1	90	0.00	29.984 
23:40	75.8	75.8	76.8	79	68.8	0	0	---	0.00	29.984 
23:45	75.8	75.8	76.9	78	68.4	0	1	90	0.00	29.970 
23:50	75.8	75.8	76.9	78	68.4	0	1	90	0.00	29.970 
23:55	75.6	75.6	76.6	78	68.2	0	1	90	0.00	29.970 

CoCoRaHS
IN-AL-39
A2 Web Hosting
Creative Commons License
GoDaddy
search engine by freefind advanced

loaded 2018-11-13 21:45:52 • last modified 2010-11-18 10:43:29
Privacy PolicyDisclaimer
• wx.awcolley.com is powered by PmWiki v.2002016 •
• all content (unless otherwise noted) © 2018 A W Colley